createdAt,value
2018-10-19T00:02:32.753Z,10.20
2018-10-19T00:05:14.210Z,10.10
2018-10-19T00:07:55.669Z,12.53
2018-10-19T00:10:37.430Z,10.80
2018-10-19T00:13:18.820Z,11.40
2018-10-19T00:16:00.092Z,9.80
2018-10-19T00:18:40.801Z,10.67
2018-10-19T00:21:22.370Z,11.50
2018-10-19T00:24:03.797Z,12.30
2018-10-19T00:26:45.401Z,19.40
2018-10-19T00:29:26.615Z,11.27
2018-10-19T00:32:07.186Z,16.57
2018-10-19T00:34:48.686Z,15.40
2018-10-19T00:37:30.143Z,16.33
2018-10-19T00:40:11.546Z,11.20
2018-10-19T00:42:52.974Z,15.33
2018-10-19T00:45:39.346Z,11.43
2018-10-19T00:48:21.239Z,19.10
2018-10-19T00:51:02.342Z,11.43
2018-10-19T00:53:43.815Z,13.07
2018-10-19T00:56:24.426Z,13.47
2018-10-19T00:59:05.491Z,12.73
2018-10-19T01:01:46.831Z,11.27
2018-10-19T01:04:28.347Z,11.17
2018-10-19T01:07:09.731Z,19.40
2018-10-19T01:09:51.158Z,15.30
2018-10-19T01:12:31.874Z,20.37
2018-10-19T01:15:12.545Z,24.23
2018-10-19T01:17:53.978Z,16.40
2018-10-19T01:20:34.538Z,11.93
2018-10-19T01:23:16.166Z,12.33
2018-10-19T01:25:56.605Z,12.23
2018-10-19T01:28:37.245Z,14.23
2018-10-19T01:31:18.721Z,17.20
2018-10-19T01:34:00.278Z,20.57
2018-10-19T01:36:43.488Z,19.93
2018-10-19T01:39:24.547Z,16.83
2018-10-19T01:42:05.998Z,20.17
2018-10-19T01:44:47.576Z,21.00
2018-10-19T01:47:28.835Z,25.10
2018-10-19T01:50:11.150Z,21.90
2018-10-19T01:52:51.924Z,22.07
2018-10-19T01:55:32.487Z,17.63
2018-10-19T01:58:14.094Z,28.47
2018-10-19T02:00:55.543Z,26.93
2018-10-19T02:03:36.073Z,30.73
2018-10-19T02:06:17.427Z,27.40
2018-10-19T02:08:58.951Z,25.67
2018-10-19T02:11:40.281Z,30.23
2018-10-19T02:14:20.863Z,27.87
2018-10-19T02:17:01.686Z,29.33
2018-10-19T02:19:43.025Z,24.83
2018-10-19T02:22:24.463Z,23.20
2018-10-19T02:25:05.145Z,30.33
2018-10-19T02:27:45.750Z,20.83
2018-10-19T02:30:27.329Z,19.40
2018-10-19T02:33:08.756Z,26.33
2018-10-19T02:35:50.125Z,20.00
2018-10-19T02:38:30.667Z,21.90
2018-10-19T02:41:12.144Z,22.73
2018-10-19T02:43:53.550Z,17.73
2018-10-19T02:46:35.054Z,18.90
2018-10-19T02:49:15.529Z,23.60
2018-10-19T02:51:57.001Z,21.80
2018-10-19T02:54:38.327Z,16.73
2018-10-19T02:57:19.804Z,16.03
2018-10-19T03:00:00.350Z,15.27
2018-10-19T03:02:42.151Z,14.33
2018-10-19T03:05:23.082Z,23.83
2018-10-19T03:08:03.691Z,20.00
2018-10-19T03:10:45.089Z,13.97
2018-10-19T03:13:27.110Z,20.50
2018-10-19T03:16:08.693Z,15.33
2018-10-19T03:18:49.606Z,17.80
2018-10-19T03:21:30.238Z,15.77
2018-10-19T03:24:12.214Z,21.17
2018-10-19T03:26:53.220Z,18.93
2018-10-19T03:29:34.611Z,13.87
2018-10-19T03:32:15.994Z,18.93
2018-10-19T03:34:57.527Z,17.33
2018-10-19T03:37:38.915Z,27.30
2018-10-19T03:40:20.252Z,17.43
2018-10-19T03:43:01.710Z,12.77
2018-10-19T03:45:43.106Z,14.97
2018-10-19T03:48:24.463Z,17.13
2018-10-19T03:51:05.990Z,18.47
2018-10-19T03:53:46.479Z,18.40
2018-10-19T03:56:28.076Z,15.13
2018-10-19T03:59:09.450Z,15.47
2018-10-19T04:01:50.935Z,18.00
2018-10-19T04:04:31.427Z,16.90
2018-10-19T04:07:11.933Z,15.67
2018-10-19T04:09:52.481Z,27.13
2018-10-19T04:12:33.842Z,21.73
2018-10-19T04:15:15.245Z,27.60
2018-10-19T04:17:57.145Z,20.00
2018-10-19T04:20:38.178Z,20.43
2018-10-19T04:23:19.656Z,20.70
2018-10-19T04:26:01.110Z,37.47
2018-10-19T04:28:42.568Z,49.43
2018-10-19T04:31:23.184Z,34.30
2018-10-19T04:34:04.608Z,57.17
2018-10-19T04:36:46.040Z,34.70
2018-10-19T04:39:27.461Z,54.10
2018-10-19T04:42:08.247Z,53.13
2018-10-19T04:44:50.070Z,40.67
2018-10-19T04:47:31.021Z,44.63
2018-10-19T04:50:12.619Z,40.70
2018-10-19T04:52:54.567Z,47.43
2018-10-19T04:55:36.167Z,67.40
2018-10-19T04:58:17.454Z,61.00
2018-10-19T05:00:58.364Z,45.53
2018-10-19T05:03:39.835Z,44.23
2018-10-19T05:06:21.253Z,42.40
2018-10-19T05:09:01.786Z,55.33
2018-10-19T05:11:42.355Z,50.67
2018-10-19T05:14:23.830Z,36.27
2018-10-19T05:17:05.577Z,86.90
2018-10-19T05:19:47.339Z,58.17
2018-10-19T05:22:28.469Z,55.47
2018-10-19T05:25:11.468Z,71.13
2018-10-19T05:27:52.098Z,44.20
2018-10-19T05:30:32.818Z,53.77
2018-10-19T05:33:13.461Z,45.00
2018-10-19T05:35:54.001Z,47.20
2018-10-19T05:38:35.438Z,48.50
2018-10-19T05:41:16.395Z,41.43
2018-10-19T05:43:57.516Z,41.67
2018-10-19T05:46:38.973Z,44.43
2018-10-19T05:49:19.582Z,33.97
2018-10-19T05:52:00.225Z,50.43
2018-10-19T05:54:41.675Z,47.17
2018-10-19T05:57:22.270Z,35.47
2018-10-19T06:00:02.927Z,30.17
2018-10-19T06:02:44.315Z,13.60
2018-10-19T06:05:25.810Z,19.17
2018-10-19T06:08:07.355Z,30.93
2018-10-19T06:10:48.811Z,21.80
2018-10-19T06:13:30.396Z,30.67
2018-10-19T06:16:10.982Z,27.20
2018-10-19T06:18:52.674Z,22.67
2018-10-19T06:21:34.024Z,30.30
2018-10-19T06:24:15.358Z,18.93
2018-10-19T06:26:55.894Z,33.00
2018-10-19T06:29:36.466Z,29.70
2018-10-19T06:32:17.185Z,30.50
2018-10-19T06:34:58.705Z,47.97
2018-10-19T06:37:40.074Z,38.53
2018-10-19T06:40:21.450Z,48.47
2018-10-19T06:43:03.003Z,54.07
2018-10-19T06:45:44.486Z,41.70
2018-10-19T06:48:25.937Z,62.87
2018-10-19T06:51:07.499Z,48.83
2018-10-19T06:53:48.817Z,60.70
2018-10-19T06:56:30.341Z,46.43
2018-10-19T06:59:11.824Z,48.13
2018-10-19T07:01:53.212Z,41.33
2018-10-19T07:04:34.770Z,44.63
2018-10-19T07:07:16.169Z,37.83
2018-10-19T07:09:57.664Z,41.73
2018-10-19T07:12:39.244Z,34.17
2018-10-19T07:15:20.589Z,27.07
2018-10-19T07:18:02.101Z,29.20
2018-10-19T07:20:43.683Z,34.93
2018-10-19T07:23:25.058Z,34.77
2018-10-19T07:26:06.600Z,32.40
2018-10-19T07:28:47.942Z,28.50
2018-10-19T07:31:28.602Z,26.73
2018-10-19T07:34:09.978Z,30.87
2018-10-19T07:36:51.349Z,31.97
2018-10-19T07:39:31.986Z,26.83
2018-10-19T07:42:13.533Z,21.30
2018-10-19T07:44:55.348Z,29.57
2018-10-19T07:47:36.311Z,19.20
2018-10-19T07:50:17.936Z,25.33
2018-10-19T07:52:59.366Z,21.60
2018-10-19T07:55:40.721Z,18.07
2018-10-19T07:58:22.208Z,19.67
2018-10-19T08:01:03.685Z,29.47
2018-10-19T08:03:45.067Z,31.50
2018-10-19T08:06:25.717Z,22.13
2018-10-19T08:09:06.226Z,20.43
2018-10-19T08:11:47.695Z,27.10
2018-10-19T08:14:29.498Z,26.73
2018-10-19T08:17:10.845Z,24.73
2018-10-19T08:19:52.298Z,24.07
2018-10-19T08:22:33.722Z,32.07
2018-10-19T08:25:15.349Z,23.00
2018-10-19T08:27:56.802Z,32.50
2018-10-19T08:30:38.251Z,30.97
2018-10-19T08:33:19.697Z,22.43
2018-10-19T08:36:00.209Z,25.40
2018-10-19T08:38:40.894Z,24.70
2018-10-19T08:41:22.284Z,28.33
2018-10-19T08:44:03.790Z,23.97
2018-10-19T08:46:45.233Z,26.77
2018-10-19T08:49:25.889Z,20.60
2018-10-19T08:52:06.487Z,19.77
2018-10-19T08:54:48.018Z,18.47
2018-10-19T08:57:29.975Z,33.63
2018-10-19T09:00:11.195Z,22.93
2018-10-19T09:02:52.052Z,24.20
2018-10-19T09:05:32.680Z,25.60
2018-10-19T09:08:14.034Z,29.47
2018-10-19T09:10:54.719Z,20.97
2018-10-19T09:13:36.125Z,30.17
2018-10-19T09:16:16.647Z,27.20
2018-10-19T09:18:58.174Z,18.63
2018-10-19T09:21:38.787Z,15.97
2018-10-19T09:24:20.226Z,25.10
2018-10-19T09:27:01.622Z,21.70
2018-10-19T09:29:43.049Z,21.50
2018-10-19T09:32:24.481Z,24.97
2018-10-19T09:35:05.891Z,23.57
2018-10-19T09:37:47.247Z,22.93
2018-10-19T09:40:28.702Z,15.73
2018-10-19T09:43:10.219Z,17.33
2018-10-19T09:45:57.778Z,20.77
2018-10-19T09:48:38.995Z,25.23
2018-10-19T09:51:20.499Z,15.53
2018-10-19T09:54:01.956Z,30.60
2018-10-19T09:56:43.223Z,16.00
2018-10-19T09:59:24.748Z,19.67
2018-10-19T10:02:06.236Z,15.47
2018-10-19T10:04:46.794Z,25.87
2018-10-19T10:07:28.138Z,19.70
2018-10-19T10:10:09.669Z,34.87
2018-10-19T10:12:51.067Z,22.83
2018-10-19T10:15:31.738Z,23.97
2018-10-19T10:18:12.136Z,28.93
2018-10-19T10:20:53.541Z,13.80
2018-10-19T10:23:34.181Z,19.00
2018-10-19T10:26:15.814Z,17.43
2018-10-19T10:28:57.081Z,28.87
2018-10-19T10:31:37.779Z,32.07
2018-10-19T10:34:18.412Z,29.93
2018-10-19T10:36:58.998Z,26.37
2018-10-19T10:39:40.334Z,30.10
2018-10-19T10:42:20.894Z,17.63
2018-10-19T10:45:01.617Z,14.97
2018-10-19T10:47:42.189Z,21.87
2018-10-19T10:50:22.710Z,19.00
2018-10-19T10:53:03.280Z,24.83
2018-10-19T10:55:44.613Z,24.13
2018-10-19T10:58:26.986Z,23.10
2018-10-19T11:01:07.575Z,15.70
2018-10-19T11:03:48.197Z,17.90
2018-10-19T11:06:29.566Z,14.60
2018-10-19T11:09:11.210Z,16.47
2018-10-19T11:11:51.818Z,26.60
2018-10-19T11:14:32.305Z,18.30
2018-10-19T11:17:12.781Z,21.87
2018-10-19T11:19:53.268Z,22.03
2018-10-19T11:22:33.952Z,17.10
2018-10-19T11:25:14.633Z,16.03
2018-10-19T11:27:55.217Z,11.83
2018-10-19T11:30:36.015Z,44.27
2018-10-19T11:33:16.457Z,31.43
2018-10-19T11:35:57.180Z,25.37
2018-10-19T11:38:37.880Z,28.10
2018-10-19T11:41:18.296Z,13.00
2018-10-19T11:43:59.525Z,16.77
2018-10-19T11:46:40.504Z,21.60
2018-10-19T11:49:22.040Z,21.20
2018-10-19T11:52:02.539Z,19.40
2018-10-19T11:54:43.020Z,14.60
2018-10-19T11:57:23.703Z,15.60
2018-10-19T12:00:04.251Z,15.53
2018-10-19T12:02:44.760Z,16.67
2018-10-19T12:05:25.372Z,20.30
2018-10-19T12:08:05.842Z,14.20
2018-10-19T12:10:46.726Z,25.83
2018-10-19T12:13:28.064Z,24.20
2018-10-19T12:16:08.767Z,22.30
2018-10-19T12:18:50.191Z,23.03
2018-10-19T12:21:30.692Z,24.67
2018-10-19T12:24:11.327Z,24.90
2018-10-19T12:26:51.894Z,12.93
2018-10-19T12:29:32.376Z,15.83
2018-10-19T12:32:13.080Z,16.93
2018-10-19T12:34:53.787Z,18.63
2018-10-19T12:37:34.338Z,22.60
2018-10-19T12:40:15.666Z,21.33
2018-10-19T12:42:56.211Z,16.73
2018-10-19T12:45:36.626Z,26.30
2018-10-19T12:48:17.176Z,21.07
2018-10-19T12:50:58.536Z,25.27
2018-10-19T12:53:39.901Z,26.57
2018-10-19T12:56:21.958Z,25.33
2018-10-19T12:59:02.842Z,26.70
2018-10-19T13:01:43.288Z,20.77
2018-10-19T13:04:23.904Z,17.43
2018-10-19T13:07:05.309Z,30.97
2018-10-19T13:09:45.792Z,26.60
2018-10-19T13:12:27.308Z,15.27
2018-10-19T13:15:08.658Z,27.03
2018-10-19T13:17:49.261Z,20.03
2018-10-19T13:20:30.417Z,20.80
2018-10-19T13:23:11.548Z,22.17
2018-10-19T13:25:53.416Z,18.33
2018-10-19T13:28:35.225Z,17.77
2018-10-19T13:31:15.876Z,21.90
2018-10-19T13:33:57.339Z,23.20
2018-10-19T13:36:38.689Z,20.77
2018-10-19T13:39:19.169Z,26.90
2018-10-19T13:41:59.643Z,18.63
2018-10-19T13:44:40.197Z,21.43
2018-10-19T13:47:20.640Z,13.00
2018-10-19T13:50:01.189Z,22.53
2018-10-19T13:52:42.556Z,20.33
2018-10-19T13:55:23.888Z,15.47
2018-10-19T13:58:04.500Z,26.63
2018-10-19T14:00:45.008Z,19.70
2018-10-19T14:03:26.300Z,23.53
2018-10-19T14:06:06.742Z,27.00
2018-10-19T14:08:47.312Z,13.27
2018-10-19T14:11:27.740Z,25.03
2018-10-19T14:14:08.323Z,19.20
2018-10-19T14:16:48.856Z,27.57
2018-10-19T14:19:30.272Z,21.53
2018-10-19T14:22:12.172Z,17.33
2018-10-19T14:24:53.053Z,24.23
2018-10-19T14:27:34.513Z,20.37
2018-10-19T14:30:17.153Z,17.70
2018-10-19T14:32:58.422Z,19.93
2018-10-19T14:35:38.994Z,25.17
2018-10-19T14:38:20.344Z,17.60
2018-10-19T14:41:01.141Z,24.20
2018-10-19T14:43:43.058Z,19.20
2018-10-19T14:46:23.793Z,23.83
2018-10-19T14:49:04.348Z,22.53
2018-10-19T14:51:44.828Z,23.43
2018-10-19T14:54:26.359Z,20.63
2018-10-19T14:57:08.037Z,25.77
2018-10-19T14:59:49.275Z,31.83
2018-10-19T15:02:29.868Z,19.33
2018-10-19T15:05:12.503Z,13.73
2018-10-19T15:07:53.838Z,20.50
2018-10-19T15:10:35.415Z,23.77
2018-10-19T15:13:15.852Z,18.83
2018-10-19T15:15:56.354Z,19.77
2018-10-19T15:18:37.932Z,29.53
2018-10-19T15:21:19.580Z,19.43
2018-10-19T15:24:00.827Z,21.80
2018-10-19T15:26:41.566Z,19.40
2018-10-19T15:29:22.740Z,36.80
2018-10-19T15:32:03.400Z,33.97
2018-10-19T15:34:44.729Z,14.10
2018-10-19T15:37:26.568Z,17.17
2018-10-19T15:40:07.566Z,23.83
2018-10-19T15:42:48.260Z,29.33
2018-10-19T15:45:29.572Z,22.00
2018-10-19T15:48:10.245Z,25.90
2018-10-19T15:50:51.537Z,24.50
2018-10-19T15:53:32.092Z,17.87
2018-10-19T15:56:12.525Z,29.43
2018-10-19T15:58:52.972Z,20.57
2018-10-19T16:01:33.568Z,29.47
2018-10-19T16:04:14.968Z,20.50
2018-10-19T16:06:56.365Z,23.23
2018-10-19T16:09:37.671Z,25.37
2018-10-19T16:12:18.232Z,19.50
2018-10-19T16:14:58.880Z,17.20
2018-10-19T16:17:40.468Z,19.83
2018-10-19T16:20:22.612Z,41.17
2018-10-19T16:23:03.308Z,26.13
2018-10-19T16:25:43.895Z,24.30
2018-10-19T16:28:25.273Z,28.40
2018-10-19T16:31:05.692Z,31.80
2018-10-19T16:33:46.699Z,44.43
2018-10-19T16:36:28.292Z,24.20
2018-10-19T16:39:10.397Z,16.13
2018-10-19T16:41:51.700Z,20.03
2018-10-19T16:44:32.850Z,23.67
2018-10-19T16:47:13.420Z,30.90
2018-10-19T16:49:54.020Z,27.37
2018-10-19T16:52:35.678Z,17.90
2018-10-19T16:55:17.018Z,26.90
2018-10-19T16:57:57.558Z,28.97
2018-10-19T17:00:38.286Z,30.47
2018-10-19T17:03:19.687Z,22.57
2018-10-19T17:06:01.598Z,34.23
2018-10-19T17:08:42.648Z,32.93
2018-10-19T17:11:24.048Z,30.20
2018-10-19T17:14:04.520Z,40.87
2018-10-19T17:19:32.232Z,28.70
2018-10-19T17:22:12.813Z,24.57
2018-10-19T17:24:53.516Z,21.67
2018-10-19T17:27:34.796Z,25.43
2018-10-19T17:30:16.189Z,32.30
2018-10-19T17:32:57.144Z,18.10
2018-10-19T17:35:38.613Z,31.70
2018-10-19T17:38:20.099Z,25.37
2018-10-19T17:41:01.566Z,25.10
2018-10-19T17:43:43.168Z,26.17
2018-10-19T17:46:24.631Z,22.83
2018-10-19T17:49:05.146Z,27.80
2018-10-19T17:51:45.664Z,25.17
2018-10-19T17:54:27.792Z,28.83
2018-10-19T17:57:08.751Z,25.70
2018-10-19T17:59:49.201Z,17.13
2018-10-19T18:02:29.894Z,24.50
2018-10-19T18:05:11.243Z,20.57
2018-10-19T18:07:52.657Z,27.30
2018-10-19T18:10:33.999Z,28.13
2018-10-19T18:13:14.663Z,25.17
2018-10-19T18:15:56.172Z,18.73
2018-10-19T18:18:37.643Z,18.37
2018-10-19T18:21:18.480Z,22.17
2018-10-19T18:23:59.795Z,26.70
2018-10-19T18:26:41.267Z,21.70
2018-10-19T18:29:22.596Z,18.80
2018-10-19T18:32:03.910Z,15.43
2018-10-19T18:34:45.439Z,22.67
2018-10-19T18:37:26.865Z,19.50
2018-10-19T18:40:09.252Z,12.00
2018-10-19T18:42:50.508Z,24.60
2018-10-19T18:45:31.064Z,15.60
2018-10-19T18:48:11.914Z,30.90
2018-10-19T18:50:53.157Z,16.20
2018-10-19T18:53:33.738Z,21.07
2018-10-19T18:56:15.312Z,21.17
2018-10-19T18:58:56.710Z,19.40
2018-10-19T19:01:37.939Z,28.80
2018-10-19T19:04:18.574Z,21.90
2018-10-19T19:07:00.046Z,22.23
2018-10-19T19:09:44.911Z,26.40
2018-10-19T19:12:26.048Z,29.37
2018-10-19T19:15:07.145Z,22.90
2018-10-19T19:17:48.698Z,27.13
2018-10-19T19:20:30.940Z,31.13
2018-10-19T19:23:11.656Z,39.20
2018-10-19T19:25:58.128Z,32.30
2018-10-19T19:28:39.552Z,26.00
2018-10-19T19:31:21.044Z,24.90
2018-10-19T19:34:07.252Z,31.50
2018-10-19T19:36:47.956Z,23.10
2018-10-19T19:39:28.501Z,26.23
2018-10-19T19:42:15.096Z,35.20
2018-10-19T19:44:57.669Z,25.50
2018-10-19T19:47:44.163Z,25.93
2018-10-19T19:50:25.366Z,25.13
2018-10-19T19:53:05.843Z,38.53
2018-10-19T19:55:47.396Z,28.67
2018-10-19T19:58:28.556Z,29.80
2018-10-19T20:01:10.035Z,38.43
2018-10-19T20:03:50.741Z,34.90
2018-10-19T20:06:32.025Z,32.70
2018-10-19T20:09:12.549Z,37.07
2018-10-19T20:11:53.272Z,35.70
2018-10-19T20:14:34.719Z,44.80
2018-10-19T20:17:16.201Z,34.03
2018-10-19T20:19:57.685Z,30.70
2018-10-19T20:22:39.325Z,32.17
2018-10-19T20:25:20.355Z,54.43
2018-10-19T20:28:01.026Z,116.17
2018-10-19T20:30:42.432Z,156.00
2018-10-19T20:33:24.054Z,97.13
2018-10-19T20:36:05.461Z,91.93
2018-10-19T20:38:46.840Z,77.13
2018-10-19T20:41:28.334Z,65.10
2018-10-19T20:44:10.232Z,29.60
2018-10-19T20:46:51.345Z,50.87
2018-10-19T20:49:31.774Z,35.67
2018-10-19T20:52:12.815Z,35.80
2018-10-19T20:54:53.858Z,38.30
2018-10-19T20:57:34.453Z,41.70
2018-10-19T21:00:15.021Z,34.33
2018-10-19T21:02:55.520Z,36.13
2018-10-19T21:05:36.168Z,45.43
2018-10-19T21:08:17.688Z,32.73
2018-10-19T21:10:58.401Z,34.23
2018-10-19T21:13:39.701Z,37.10
2018-10-19T21:16:20.457Z,45.13
2018-10-19T21:19:01.869Z,41.37
2018-10-19T21:21:43.374Z,31.00
2018-10-19T21:24:24.720Z,31.00
2018-10-19T21:27:06.252Z,44.40
2018-10-19T21:29:47.791Z,39.53
2018-10-19T21:32:28.952Z,33.43
2018-10-19T21:35:09.595Z,30.90
2018-10-19T21:37:50.849Z,37.10
2018-10-19T21:40:31.385Z,45.43
2018-10-19T21:43:11.806Z,43.37
2018-10-19T21:45:52.592Z,43.30
2018-10-19T21:48:34.250Z,41.93
2018-10-19T21:51:15.595Z,44.30
2018-10-19T21:53:56.170Z,41.83
2018-10-19T21:56:37.634Z,40.30
2018-10-19T21:59:18.089Z,35.90
2018-10-19T22:01:58.777Z,44.87
2018-10-19T22:04:39.993Z,54.33
2018-10-19T22:07:20.737Z,43.20
2018-10-19T22:10:02.095Z,41.73
2018-10-19T22:12:43.640Z,41.13
2018-10-19T22:15:25.015Z,43.83
2018-10-19T22:18:06.401Z,37.67
2018-10-19T22:20:47.929Z,48.43
2018-10-19T22:23:29.357Z,39.17
2018-10-19T22:26:09.955Z,37.47
2018-10-19T22:28:50.486Z,47.13
2018-10-19T22:31:31.841Z,37.30
2018-10-19T22:34:12.411Z,45.10
2018-10-19T22:36:53.753Z,59.53
2018-10-19T22:39:34.252Z,53.97
2018-10-19T22:42:14.736Z,54.00
2018-10-19T22:44:55.197Z,44.33
2018-10-19T22:47:36.038Z,37.60
2018-10-19T22:50:17.324Z,43.07
2018-10-19T22:52:57.885Z,51.37
2018-10-19T22:55:38.300Z,43.10
2018-10-19T22:58:18.760Z,55.23
2018-10-19T23:00:59.285Z,36.67
2018-10-19T23:03:40.702Z,41.83
2018-10-19T23:06:22.169Z,41.63
2018-10-19T23:09:02.689Z,53.60
2018-10-19T23:11:43.216Z,33.93
2018-10-19T23:14:23.750Z,57.80
2018-10-19T23:17:05.100Z,50.30
2018-10-19T23:19:45.641Z,54.10
2018-10-19T23:22:26.212Z,39.73
2018-10-19T23:25:07.109Z,69.40
2018-10-19T23:27:48.310Z,81.77
2018-10-19T23:30:29.745Z,82.43
2018-10-19T23:33:10.206Z,95.23
2018-10-19T23:35:50.809Z,91.37
2018-10-19T23:38:31.304Z,64.80
2018-10-19T23:41:11.861Z,59.30
2018-10-19T23:43:52.412Z,61.20
2018-10-19T23:46:32.856Z,55.73
2018-10-19T23:49:13.404Z,56.87
2018-10-19T23:51:54.796Z,44.57
2018-10-19T23:54:36.092Z,55.30
2018-10-19T23:57:16.508Z,49.10
2018-10-19T23:59:57.189Z,32.83
